createdAt,value
2022-10-23T00:01:51.018Z,101921.16
2022-10-23T00:04:21.602Z,101927.22
2022-10-23T00:06:51.435Z,101910.56
2022-10-23T00:09:24.637Z,101899.97
2022-10-23T00:11:56.909Z,101896.59
2022-10-23T00:14:29.138Z,101899.38
2022-10-23T00:16:59.563Z,101892.31
2022-10-23T00:19:27.660Z,101896.84
2022-10-23T00:21:55.637Z,101904.97
2022-10-23T00:24:23.724Z,101926.31
2022-10-23T00:26:51.862Z,101937.91
2022-10-23T00:29:19.786Z,101946.81
2022-10-23T00:31:49.791Z,101960.06
2022-10-23T00:34:17.837Z,101965.59
2022-10-23T00:36:48.463Z,101959.38
2022-10-23T00:39:16.154Z,101962.91
2022-10-23T00:41:44.123Z,101969.25
2022-10-23T00:44:50.485Z,101964.91
2022-10-23T00:47:20.079Z,101979.19
2022-10-23T00:49:48.089Z,102007.63
2022-10-23T00:52:17.125Z,102033.31
2022-10-23T00:54:45.658Z,102060.75
2022-10-23T00:57:16.091Z,102082.78
2022-10-23T00:59:44.268Z,102098.72
2022-10-23T01:02:14.285Z,102110.97
2022-10-23T01:04:53.516Z,102124.13
2022-10-23T01:07:30.144Z,102130.22
2022-10-23T01:10:05.953Z,102120.25
2022-10-23T01:12:39.710Z,102122.72
2022-10-23T01:15:18.455Z,102119.00
2022-10-23T01:17:54.874Z,102102.81
2022-10-23T01:20:39.965Z,102077.69
2022-10-23T01:23:37.893Z,102065.94
2022-10-23T01:26:36.592Z,102020.56
2022-10-23T01:29:11.725Z,101985.72
2022-10-23T01:31:46.216Z,101950.00
2022-10-23T01:34:17.387Z,101929.44
2022-10-23T01:36:51.540Z,101917.66
2022-10-23T01:39:23.894Z,101902.41
2022-10-23T01:42:00.959Z,101864.06
2022-10-23T01:44:35.650Z,101835.44
2022-10-23T01:47:07.823Z,101823.72
2022-10-23T01:49:40.157Z,101813.81
2022-10-23T01:52:19.641Z,101780.91
2022-10-23T01:54:50.926Z,101748.81
2022-10-23T02:00:18.922Z,101687.22
2022-10-23T02:02:50.004Z,101674.84
2022-10-23T02:05:23.002Z,101647.44
2022-10-23T02:07:51.610Z,101633.16
2022-10-23T02:10:20.661Z,101619.00
2022-10-23T02:12:56.852Z,101609.31
2022-10-23T02:15:38.158Z,101588.22
2022-10-23T02:18:14.517Z,101586.41
2022-10-23T02:20:55.520Z,101577.72
2022-10-23T02:23:34.916Z,101552.19
2022-10-23T02:26:12.651Z,101554.19
2022-10-23T02:28:48.142Z,101548.16
2022-10-23T02:31:21.313Z,101541.25
2022-10-23T02:33:49.842Z,101543.28
2022-10-23T02:36:22.692Z,101537.31
2022-10-23T02:38:53.133Z,101536.69
2022-10-23T02:41:37.332Z,101544.03
2022-10-23T02:44:19.886Z,101542.34
2022-10-23T02:46:54.591Z,101541.78
2022-10-23T02:49:37.217Z,101535.94
2022-10-23T02:52:28.914Z,101547.75
2022-10-23T02:55:58.082Z,101565.78
2022-10-23T02:58:41.864Z,101555.59
2022-10-23T03:01:27.276Z,101562.97
2022-10-23T03:04:13.131Z,101583.69
2022-10-23T03:06:41.690Z,101596.34
2022-10-23T03:09:30.743Z,101604.63
2022-10-23T03:12:01.105Z,101619.03
2022-10-23T03:14:29.488Z,101639.69
2022-10-23T03:17:02.563Z,101647.03
2022-10-23T03:19:34.330Z,101664.00
2022-10-23T03:22:04.942Z,101667.03
2022-10-23T03:24:32.799Z,101685.78
2022-10-23T03:27:00.590Z,101683.25
2022-10-23T03:29:28.523Z,101698.59
2022-10-23T03:31:59.801Z,101696.13
2022-10-23T03:34:28.027Z,101736.09
2022-10-23T03:36:57.304Z,101745.22
2022-10-23T03:39:25.409Z,101759.47
2022-10-23T03:42:00.740Z,101778.19
2022-10-23T03:44:35.675Z,101768.66
2022-10-23T03:47:04.538Z,101754.75
2022-10-23T03:49:33.870Z,101762.06
2022-10-23T03:52:03.150Z,101739.22
2022-10-23T03:54:31.743Z,101743.75
2022-10-23T03:57:01.716Z,101749.34
2022-10-23T03:59:32.406Z,101745.88
2022-10-23T04:02:04.893Z,101753.22
2022-10-23T04:11:24.269Z,101745.06
2022-10-23T04:14:04.103Z,101758.59
2022-10-23T04:16:35.262Z,101792.25
2022-10-23T04:19:06.534Z,101795.16
2022-10-23T04:21:40.869Z,101827.88
2022-10-23T04:24:18.293Z,101853.66
2022-10-23T04:27:00.730Z,101833.53
2022-10-23T04:29:32.090Z,101804.59
2022-10-23T04:32:01.025Z,101794.03
2022-10-23T04:34:30.536Z,101773.00
2022-10-23T04:36:59.016Z,101764.31
2022-10-23T04:39:30.698Z,101816.56
2022-10-23T04:42:12.274Z,101857.28
2022-10-23T04:44:42.295Z,101859.19
2022-10-23T04:47:11.036Z,101869.03
2022-10-23T04:49:43.723Z,101860.25
2022-10-23T04:52:17.809Z,101838.28
2022-10-23T04:54:52.671Z,101827.88
2022-10-23T04:57:24.052Z,101821.69
2022-10-23T04:59:54.600Z,101830.66
2022-10-23T05:02:23.601Z,101850.19
2022-10-23T05:04:51.736Z,101868.78
2022-10-23T05:07:19.633Z,101876.81
2022-10-23T05:09:50.770Z,101874.22
2022-10-23T05:12:18.842Z,101853.94
2022-10-23T05:14:50.999Z,101853.09
2022-10-23T05:17:21.334Z,101832.84
2022-10-23T05:19:54.212Z,101851.53
2022-10-23T05:22:29.105Z,101837.38
2022-10-23T05:24:59.582Z,101826.78
2022-10-23T05:27:27.583Z,101816.22
2022-10-23T05:30:02.601Z,101752.69
2022-10-23T05:32:33.657Z,101735.03
2022-10-23T05:35:06.312Z,101704.16
2022-10-23T05:37:38.360Z,101688.44
2022-10-23T05:40:09.049Z,101708.88
2022-10-23T05:42:39.499Z,101725.75
2022-10-23T05:45:12.638Z,101728.38
2022-10-23T05:47:40.372Z,101757.56
2022-10-23T05:50:09.572Z,101800.91
2022-10-23T05:52:37.675Z,101852.31
2022-10-23T05:55:06.047Z,101831.13
2022-10-23T05:57:34.676Z,101851.47
2022-10-23T06:00:02.468Z,101877.09
2022-10-23T06:02:32.014Z,101874.47
2022-10-23T06:04:59.956Z,101851.41
2022-10-23T06:07:31.196Z,101833.69
2022-10-23T06:10:01.330Z,101798.09
2022-10-23T06:12:31.117Z,101781.03
2022-10-23T06:14:59.119Z,101757.84
2022-10-23T06:17:27.113Z,101745.84
2022-10-23T06:20:02.428Z,101721.59
2022-10-23T06:22:36.643Z,101663.84
2022-10-23T06:25:04.799Z,101690.88
2022-10-23T06:27:32.655Z,101760.28
2022-10-23T06:30:00.471Z,101717.31
2022-10-23T06:32:28.266Z,101748.41
2022-10-23T06:34:57.281Z,101614.31
2022-10-23T06:37:25.294Z,101541.97
2022-10-23T06:39:53.111Z,101510.28
2022-10-23T06:42:20.873Z,101496.06
2022-10-23T06:44:48.934Z,101528.34
2022-10-23T06:49:45.383Z,101478.69
2022-10-23T06:52:41.802Z,101458.53
2022-10-23T06:55:02.912Z,101361.63
2022-10-23T06:57:30.755Z,101320.16
2022-10-23T06:59:58.602Z,101296.53
2022-10-23T07:02:26.981Z,101273.88
2022-10-23T07:04:55.432Z,101275.97
2022-10-23T07:07:24.862Z,101277.22
2022-10-23T07:09:52.755Z,101297.41
2022-10-23T07:12:20.350Z,101308.09
2022-10-23T07:14:48.153Z,101313.72
2022-10-23T07:17:16.335Z,101285.25
2022-10-23T07:19:44.346Z,101307.19
2022-10-23T07:22:16.051Z,101303.69
2022-10-23T07:24:48.554Z,101314.81
2022-10-23T07:27:16.471Z,101325.97
2022-10-23T07:29:44.135Z,101314.31
2022-10-23T07:32:13.343Z,101337.28
2022-10-23T07:34:41.217Z,101355.53
2022-10-23T07:37:09.100Z,101336.88
2022-10-23T07:39:37.245Z,101339.53
2022-10-23T07:42:06.813Z,101330.66
2022-10-23T07:44:34.713Z,101333.06
2022-10-23T07:47:02.512Z,101352.66
2022-10-23T07:49:34.209Z,101344.41
2022-10-23T07:52:06.957Z,101354.75
2022-10-23T07:54:35.399Z,101340.44
2022-10-23T07:57:03.510Z,101338.69
2022-10-23T07:59:37.191Z,101340.09
2022-10-23T08:02:06.710Z,101356.72
2022-10-23T08:04:34.601Z,101340.22
2022-10-23T08:07:02.242Z,101406.75
2022-10-23T08:09:30.636Z,101420.88
2022-10-23T08:11:59.089Z,101461.25
2022-10-23T08:14:38.516Z,101477.47
2022-10-23T08:17:10.128Z,101466.06
2022-10-23T08:19:46.479Z,101504.09
2022-10-23T08:22:16.931Z,101468.00
2022-10-23T08:24:46.317Z,101475.56
2022-10-23T08:27:16.451Z,101483.63
2022-10-23T08:29:49.270Z,101500.25
2022-10-23T08:32:24.230Z,101463.63
2022-10-23T08:34:52.308Z,101491.72
2022-10-23T08:37:22.800Z,101458.84
2022-10-23T08:39:52.667Z,101499.97
2022-10-23T08:42:29.709Z,101489.09
2022-10-23T08:45:15.427Z,101471.94
2022-10-23T08:47:50.876Z,101446.69
2022-10-23T08:53:03.562Z,101452.84
2022-10-23T08:55:35.043Z,101412.63
2022-10-23T08:58:10.450Z,101409.53
2022-10-23T09:00:38.365Z,101418.00
2022-10-23T09:03:08.051Z,101434.22
2022-10-23T09:05:54.269Z,101384.94
2022-10-23T09:08:34.261Z,101371.88
2022-10-23T09:11:06.324Z,101344.81
2022-10-23T09:13:55.588Z,101340.75
2022-10-23T09:16:38.357Z,101311.03
2022-10-23T09:19:16.324Z,101340.94
2022-10-23T09:21:47.882Z,101375.09
2022-10-23T09:24:17.997Z,101373.72
2022-10-23T09:26:48.431Z,101363.28
2022-10-23T09:29:27.296Z,101358.34
2022-10-23T09:31:57.652Z,101334.06
2022-10-23T09:34:42.901Z,101305.91
2022-10-23T09:37:23.950Z,101249.03
2022-10-23T09:40:04.858Z,101234.25
2022-10-23T09:42:37.539Z,101248.28
2022-10-23T09:45:30.310Z,101204.84
2022-10-23T09:48:19.323Z,101179.41
2022-10-23T09:50:56.742Z,101204.50
2022-10-23T09:53:37.222Z,101200.47
2022-10-23T09:56:12.054Z,101182.84
2022-10-23T09:58:46.128Z,101196.78
2022-10-23T10:01:28.272Z,101180.16
2022-10-23T10:03:57.026Z,101142.75
2022-10-23T10:06:28.569Z,101127.59
2022-10-23T10:09:04.293Z,101156.94
2022-10-23T10:11:39.518Z,101159.25
2022-10-23T10:14:43.650Z,101142.88
2022-10-23T10:17:20.109Z,101147.09
2022-10-23T10:20:19.957Z,101108.06
2022-10-23T10:22:59.445Z,101096.69
2022-10-23T10:25:37.456Z,101083.78
2022-10-23T10:28:23.918Z,101059.41
2022-10-23T10:31:13.067Z,101012.72
2022-10-23T10:33:50.247Z,100975.97
2022-10-23T10:36:38.356Z,100994.63
2022-10-23T10:39:17.540Z,100991.06
2022-10-23T10:41:54.379Z,100949.75
2022-10-23T10:44:40.369Z,100916.22
2022-10-23T10:47:20.048Z,100932.16
2022-10-23T10:50:03.494Z,100917.72
2022-10-23T10:52:38.284Z,100900.44
2022-10-23T10:55:19.951Z,100893.09
2022-10-23T10:57:59.249Z,100886.72
2022-10-23T11:00:31.252Z,100871.09
2022-10-23T11:03:13.481Z,100897.84
2022-10-23T11:05:45.566Z,100893.19
2022-10-23T11:08:18.115Z,100914.84
2022-10-23T11:10:51.414Z,100898.84
2022-10-23T11:13:28.822Z,100871.81
2022-10-23T11:16:00.615Z,100868.91
2022-10-23T11:18:32.294Z,100858.91
2022-10-23T11:21:10.354Z,100866.09
2022-10-23T11:24:11.491Z,100814.53
2022-10-23T11:26:53.341Z,100794.19
2022-10-23T11:30:06.933Z,100792.22
2022-10-23T11:32:58.696Z,100766.22
2022-10-23T11:35:51.059Z,100760.47
2022-10-23T11:38:24.926Z,100746.56
2022-10-23T11:40:57.751Z,100682.84
2022-10-23T11:43:34.374Z,100733.69
2022-10-23T11:46:13.565Z,100709.59
2022-10-23T11:48:44.217Z,100679.78
2022-10-23T11:51:29.537Z,100665.53
2022-10-23T11:54:24.738Z,100651.03
2022-10-23T11:56:57.103Z,100634.34
2022-10-23T11:59:31.916Z,100629.06
2022-10-23T12:02:02.622Z,100621.09
2022-10-23T12:04:41.891Z,100581.06
2022-10-23T12:07:34.264Z,100561.16
2022-10-23T12:10:04.484Z,100584.38
2022-10-23T12:12:36.165Z,100599.47
2022-10-23T12:15:24.007Z,100604.59
2022-10-23T12:17:56.593Z,100628.19
2022-10-23T12:20:33.167Z,100612.63
2022-10-23T12:23:33.827Z,100594.28
2022-10-23T12:26:19.191Z,100549.88
2022-10-23T12:28:56.131Z,100573.41
2022-10-23T12:31:35.709Z,100559.56
2022-10-23T12:34:19.252Z,100539.59
2022-10-23T12:37:08.744Z,100561.91
2022-10-23T12:39:40.273Z,100557.75
2022-10-23T12:42:19.372Z,100548.38
2022-10-23T12:44:47.380Z,100533.28
2022-10-23T12:47:30.666Z,100535.84
2022-10-23T12:49:58.770Z,100554.38
2022-10-23T12:52:39.691Z,100535.94
2022-10-23T12:55:14.816Z,100505.38
2022-10-23T12:57:44.643Z,100499.34
2022-10-23T13:00:20.788Z,100466.53
2022-10-23T13:03:00.119Z,100484.91
2022-10-23T13:05:29.137Z,100472.13
2022-10-23T13:08:15.035Z,100457.88
2022-10-23T13:10:43.486Z,100445.25
2022-10-23T13:13:24.146Z,100438.72
2022-10-23T13:15:54.208Z,100411.22
2022-10-23T13:18:51.212Z,100413.78
2022-10-23T13:21:28.825Z,100414.78
2022-10-23T13:24:01.735Z,100415.25
2022-10-23T13:26:35.198Z,100379.97
2022-10-23T13:29:07.326Z,100349.25
2022-10-23T13:31:42.259Z,100344.97
2022-10-23T13:34:28.734Z,100346.81
2022-10-23T13:37:05.450Z,100356.09
2022-10-23T13:39:37.308Z,100346.47
2022-10-23T13:42:14.704Z,100321.84
2022-10-23T13:44:51.631Z,100320.78
2022-10-23T13:47:24.756Z,100317.34
2022-10-23T13:49:56.543Z,100290.03
2022-10-23T13:52:40.210Z,100248.59
2022-10-23T13:55:22.081Z,100243.06
2022-10-23T13:57:50.489Z,100257.13
2022-10-23T14:00:19.751Z,100273.91
2022-10-23T14:05:24.217Z,100271.00
2022-10-23T14:07:51.914Z,100286.66
2022-10-23T14:10:25.640Z,100246.19
2022-10-23T14:12:55.389Z,100249.31
2022-10-23T14:15:23.315Z,100272.06
2022-10-23T14:17:59.034Z,100261.78
2022-10-23T14:20:30.251Z,100264.16
2022-10-23T14:22:58.206Z,100243.19
2022-10-23T14:25:26.315Z,100246.94
2022-10-23T14:30:25.824Z,100265.31
2022-10-23T14:32:56.469Z,100258.34
2022-10-23T14:35:25.731Z,100264.97
2022-10-23T14:37:54.795Z,100283.88
2022-10-23T14:40:22.769Z,100286.00
2022-10-23T14:42:50.574Z,100280.25
2022-10-23T14:45:18.506Z,100280.38
2022-10-23T14:47:46.521Z,100288.97
2022-10-23T14:50:15.443Z,100290.00
2022-10-23T14:52:51.964Z,100280.44
2022-10-23T14:55:21.544Z,100269.53
2022-10-23T14:57:52.209Z,100267.94
2022-10-23T15:00:25.235Z,100259.50
2022-10-23T15:02:53.386Z,100273.00
2022-10-23T15:05:21.373Z,100262.59
2022-10-23T15:07:52.808Z,100272.78
2022-10-23T15:10:22.249Z,100264.22
2022-10-23T15:12:50.173Z,100258.19
2022-10-23T15:15:18.767Z,100262.13
2022-10-23T15:17:46.748Z,100278.59
2022-10-23T15:20:14.468Z,100266.59
2022-10-23T15:22:46.564Z,100271.63
2022-10-23T15:25:17.913Z,100270.41
2022-10-23T15:27:51.409Z,100268.31
2022-10-23T15:30:19.379Z,100269.06
2022-10-23T15:32:50.754Z,100274.09
2022-10-23T15:35:18.398Z,100277.44
2022-10-23T15:37:47.027Z,100286.22
2022-10-23T15:40:15.573Z,100297.38
2022-10-23T15:42:43.763Z,100297.88
2022-10-23T15:45:16.376Z,100299.47
2022-10-23T15:47:44.649Z,100307.28
2022-10-23T15:50:12.640Z,100316.72
2022-10-23T15:52:40.578Z,100318.03
2022-10-23T15:55:11.593Z,100329.06
2022-10-23T15:57:42.626Z,100330.25
2022-10-23T16:00:18.151Z,100345.56
2022-10-23T16:02:47.822Z,100352.91
2022-10-23T16:05:17.405Z,100354.84
2022-10-23T16:07:45.262Z,100356.69
2022-10-23T16:10:13.739Z,100346.88
2022-10-23T16:12:41.755Z,100351.41
2022-10-23T16:15:13.407Z,100338.22
2022-10-23T16:17:43.414Z,100343.44
2022-10-23T16:20:12.174Z,100334.03
2022-10-23T16:22:42.706Z,100335.72
2022-10-23T16:25:13.127Z,100335.72
2022-10-23T16:27:43.678Z,100331.44
2022-10-23T16:30:14.385Z,100327.66
2022-10-23T16:32:43.816Z,100313.59
2022-10-23T16:35:13.096Z,100316.34
2022-10-23T16:37:45.198Z,100334.25
2022-10-23T16:40:13.206Z,100328.00
2022-10-23T16:42:41.720Z,100313.66
2022-10-23T16:45:10.563Z,100310.13
2022-10-23T16:47:38.400Z,100312.44
2022-10-23T16:50:08.477Z,100318.78
2022-10-23T16:52:36.653Z,100308.25
2022-10-23T16:55:05.035Z,100315.13
2022-10-23T16:57:33.234Z,100301.88
2022-10-23T17:00:00.934Z,100298.09
2022-10-23T17:02:28.749Z,100299.94
2022-10-23T17:05:02.247Z,100300.06
2022-10-23T17:07:33.224Z,100281.34
2022-10-23T17:10:01.165Z,100288.66
2022-10-23T17:12:28.960Z,100275.47
2022-10-23T17:14:56.967Z,100269.94
2022-10-23T17:17:24.749Z,100254.91
2022-10-23T17:19:52.513Z,100232.53
2022-10-23T17:22:20.385Z,100245.63
2022-10-23T17:24:51.628Z,100238.53
2022-10-23T17:27:21.996Z,100231.31
2022-10-23T17:29:49.668Z,100234.75
2022-10-23T17:32:17.471Z,100227.63
2022-10-23T17:34:47.402Z,100216.00
2022-10-23T17:37:15.296Z,100214.06
2022-10-23T17:39:43.431Z,100217.50
2022-10-23T17:42:18.000Z,100225.31
2022-10-23T17:44:45.824Z,100230.69
2022-10-23T17:47:13.539Z,100234.59
2022-10-23T17:49:42.903Z,100232.91
2022-10-23T17:52:14.971Z,100227.25
2022-10-23T17:54:46.683Z,100232.78
2022-10-23T17:57:17.470Z,100239.97
2022-10-23T17:59:47.774Z,100240.22
2022-10-23T18:02:16.066Z,100241.31
2022-10-23T18:04:43.842Z,100236.88
2022-10-23T18:07:14.680Z,100234.44
2022-10-23T18:09:42.589Z,100235.28
2022-10-23T18:12:13.464Z,100236.28
2022-10-23T18:14:48.694Z,100233.06
2022-10-23T18:17:18.176Z,100235.88
2022-10-23T18:19:46.138Z,100231.38
2022-10-23T18:22:14.689Z,100221.06
2022-10-23T18:24:47.392Z,100223.75
2022-10-23T18:27:15.348Z,100221.31
2022-10-23T18:29:44.946Z,100219.81
2022-10-23T18:32:12.858Z,100215.78
2022-10-23T18:34:41.956Z,100225.16
2022-10-23T18:37:10.829Z,100226.25
2022-10-23T18:39:43.694Z,100232.59
2022-10-23T18:42:11.837Z,100237.25
2022-10-23T18:44:39.950Z,100230.03
2022-10-23T18:47:09.446Z,100223.91
2022-10-23T18:49:37.328Z,100223.81
2022-10-23T18:52:07.565Z,100220.25
2022-10-23T18:54:35.754Z,100216.81
2022-10-23T18:57:03.691Z,100207.03
2022-10-23T18:59:31.665Z,100216.06
2022-10-23T19:01:59.768Z,100219.00
2022-10-23T19:04:32.779Z,100222.44
2022-10-23T19:07:03.458Z,100231.97
2022-10-23T19:09:31.182Z,100220.47
2022-10-23T19:12:02.594Z,100208.88
2022-10-23T19:14:33.614Z,100207.28
2022-10-23T19:17:05.427Z,100202.88
2022-10-23T19:19:37.397Z,100198.47
2022-10-23T19:22:06.429Z,100184.28
2022-10-23T19:24:41.064Z,100182.81
2022-10-23T19:27:11.852Z,100179.13
2022-10-23T19:29:44.472Z,100178.38
2022-10-23T19:32:12.776Z,100180.00
2022-10-23T19:34:42.410Z,100155.06
2022-10-23T19:37:10.540Z,100157.00
2022-10-23T19:39:38.519Z,100147.22
2022-10-23T19:42:08.657Z,100134.66
2022-10-23T19:44:36.828Z,100134.66
2022-10-23T19:47:04.678Z,100139.78
2022-10-23T19:49:32.754Z,100139.78
2022-10-23T19:52:04.670Z,100131.72
2022-10-23T19:54:33.738Z,100124.63
2022-10-23T19:57:02.598Z,100116.69
2022-10-23T19:59:30.478Z,100118.53
2022-10-23T20:02:05.268Z,100109.72
2022-10-23T20:04:37.230Z,100117.06
2022-10-23T20:07:10.334Z,100118.25
2022-10-23T20:09:39.562Z,100112.13
2022-10-23T20:12:09.130Z,100104.19
2022-10-23T20:14:37.042Z,100113.97
2022-10-23T20:17:08.846Z,100095.00
2022-10-23T20:19:36.561Z,100102.31
2022-10-23T20:22:05.569Z,100107.69
2022-10-23T20:24:38.071Z,100104.03
2022-10-23T20:27:06.125Z,100096.06
2022-10-23T20:29:33.939Z,100083.50
2022-10-23T20:32:01.760Z,100087.06
2022-10-23T20:34:30.021Z,100076.53
2022-10-23T20:36:57.944Z,100059.88
2022-10-23T20:39:27.155Z,100043.75
2022-10-23T20:42:00.407Z,100043.03
2022-10-23T20:44:31.000Z,100031.88
2022-10-23T20:47:01.574Z,100033.09
2022-10-23T20:49:33.600Z,100030.66
2022-10-23T20:52:03.184Z,100013.91
2022-10-23T20:54:31.871Z,100013.16
2022-10-23T20:57:01.657Z,100018.66
2022-10-23T20:59:29.666Z,100013.50
2022-10-23T21:01:58.233Z,100004.69
2022-10-23T21:04:27.688Z,99995.41
2022-10-23T21:07:15.087Z,99990.28
2022-10-23T21:09:43.288Z,99989.88
2022-10-23T21:12:12.659Z,100013.94
2022-10-23T21:14:40.595Z,100015.47
2022-10-23T21:17:10.913Z,100024.84
2022-10-23T21:19:40.142Z,100044.38
2022-10-23T21:22:07.765Z,100053.81
2022-10-23T21:24:35.652Z,100063.13
2022-10-23T21:27:03.461Z,100047.13
2022-10-23T21:29:32.725Z,100044.09
2022-10-23T21:32:02.319Z,100040.09
2022-10-23T21:34:30.370Z,100016.50
2022-10-23T21:37:14.833Z,100007.84
2022-10-23T21:39:43.225Z,100010.13
2022-10-23T21:42:11.554Z,100025.69
2022-10-23T21:44:43.559Z,100030.44
2022-10-23T21:47:12.082Z,100041.38
2022-10-23T21:49:39.696Z,100048.72
2022-10-23T21:52:09.156Z,100060.50
2022-10-23T21:54:36.856Z,100070.19
2022-10-23T21:57:04.805Z,100056.53
2022-10-23T21:59:36.041Z,100047.41
2022-10-23T22:02:08.454Z,100044.38
2022-10-23T22:04:36.828Z,100025.47
2022-10-23T22:07:05.897Z,100013.41
2022-10-23T22:09:34.535Z,100006.09
2022-10-23T22:12:02.723Z,99985.59
2022-10-23T22:14:30.481Z,99998.69
2022-10-23T22:16:58.036Z,99993.22
2022-10-23T22:19:27.169Z,99999.94
2022-10-23T22:21:55.274Z,99993.56
2022-10-23T22:24:25.851Z,99994.22
2022-10-23T22:26:56.245Z,99982.38
2022-10-23T22:29:26.746Z,99990.97
2022-10-23T22:31:56.090Z,99983.41
2022-10-23T22:34:51.384Z,99984.34
2022-10-23T22:37:16.824Z,99984.34
2022-10-23T22:39:44.509Z,99974.59
2022-10-23T22:42:12.277Z,99976.53
2022-10-23T22:44:40.683Z,99967.88
2022-10-23T22:47:09.004Z,99977.44
2022-10-23T22:49:37.082Z,99983.03
2022-10-23T22:52:05.098Z,100002.81
2022-10-23T22:54:34.797Z,100005.63
2022-10-23T22:57:03.567Z,100009.41
2022-10-23T22:59:31.412Z,100034.78
2022-10-23T23:01:59.276Z,100049.41
2022-10-23T23:04:43.100Z,100069.50
2022-10-23T23:07:13.596Z,100097.66
2022-10-23T23:09:44.513Z,100132.81
2022-10-23T23:12:15.062Z,100163.88
2022-10-23T23:14:43.962Z,100180.50
2022-10-23T23:17:12.023Z,100204.13
2022-10-23T23:19:40.036Z,100209.94
2022-10-23T23:22:07.812Z,100244.91
2022-10-23T23:24:35.590Z,100262.00
2022-10-23T23:27:04.886Z,100274.97
2022-10-23T23:29:32.556Z,100301.16
2022-10-23T23:32:00.189Z,100295.56
2022-10-23T23:34:27.915Z,100336.78
2022-10-23T23:36:56.161Z,100354.81
2022-10-23T23:39:23.780Z,100379.13
2022-10-23T23:41:51.402Z,100406.09
2022-10-23T23:44:20.416Z,100415.06
2022-10-23T23:46:47.956Z,100421.28
2022-10-23T23:49:15.730Z,100457.91
2022-10-23T23:51:43.344Z,100460.78
2022-10-23T23:54:11.107Z,100470.75
2022-10-23T23:56:39.078Z,100447.66
2022-10-23T23:59:06.835Z,100416.53
